Time;durP1;ratioP1;P1;durP2;ratioP2;P2;SDS_P1;SDS_P2;PMS_P1;PMS_P2;Temp;Humidity;BMP_temperature;BMP_pressure;BME280_temperature;BME280_humidity;BME280_pressure;Samples;Min_cycle;Max_cycle;Signal;HPM_P1;HPM_P2
2021/09/04 00:00:07;;;;;;;13.98;10.20;;;;;;;;;;4900239;29;20075;-46
2021/09/04 00:02:34;;;;;;;13.13;10.00;;;;;;;;;;4913061;29;20052;-48
2021/09/04 00:05:02;;;;;;;13.75;10.13;;;;;;;;;;4911192;29;20033;-47
2021/09/04 00:07:30;;;;;;;14.00;10.18;;;;;;;;;;4920221;29;20618;-49
2021/09/04 00:10:00;;;;;;;14.98;11.40;;;;;;;;;;4916716;29;20428;-47
2021/09/04 00:12:28;;;;;;;14.52;11.93;;;;;;;;;;4909001;29;20499;-46
2021/09/04 00:14:55;;;;;;;17.30;12.40;;;;;;;;;;4915975;29;20052;-49
2021/09/04 00:17:22;;;;;;;16.40;13.27;;;;;;;;;;4905332;29;20056;-49
2021/09/04 00:19:49;;;;;;;20.10;15.32;;;;;;;;;;4903414;29;20146;-50
2021/09/04 00:22:16;;;;;;;18.08;15.27;;;;;;;;;;4923407;29;20050;-51
2021/09/04 00:24:42;;;;;;;20.42;15.15;;;;;;;;;;4914562;29;20132;-46
2021/09/04 00:27:09;;;;;;;19.02;15.23;;;;;;;;;;4907259;29;20048;-48
2021/09/04 00:29:36;;;;;;;17.38;14.48;;;;;;;;;;4897382;29;20048;-49
2021/09/04 00:32:03;;;;;;;17.80;14.02;;;;;;;;;;4911508;29;20052;-49
2021/09/04 00:34:30;;;;;;;18.98;15.13;;;;;;;;;;4920987;29;20427;-49
2021/09/04 00:36:57;;;;;;;15.90;12.38;;;;;;;;;;4903796;29;20544;-47
2021/09/04 00:39:24;;;;;;;18.60;13.90;;;;;;;;;;4916130;29;20072;-48
2021/09/04 00:41:51;;;;;;;19.17;13.85;;;;;;;;;;4898600;29;20045;-48
2021/09/04 00:44:19;;;;;;;17.20;13.35;;;;;;;;;;4927444;29;20135;-50
2021/09/04 00:46:46;;;;;;;20.25;14.32;;;;;;;;;;4924664;29;20032;-47
2021/09/04 00:49:13;;;;;;;18.83;14.07;;;;;;;;;;4897372;29;20131;-47
2021/09/04 00:51:40;;;;;;;16.58;13.40;;;;;;;;;;4898370;29;20058;-50
2021/09/04 00:54:07;;;;;;;18.17;12.80;;;;;;;;;;4914979;29;20041;-50
2021/09/04 00:56:36;;;;;;;16.38;12.65;;;;;;;;;;4915047;29;20516;-48
2021/09/04 00:59:08;;;;;;;16.95;13.07;;;;;;;;;;4915652;29;20498;-47
2021/09/04 01:01:36;;;;;;;16.73;12.52;;;;;;;;;;4908971;29;20036;-49
2021/09/04 01:04:03;;;;;;;15.02;12.18;;;;;;;;;;4913861;29;20051;-47
2021/09/04 01:06:31;;;;;;;19.40;13.63;;;;;;;;;;4915239;29;20048;-48
2021/09/04 01:08:58;;;;;;;17.23;12.52;;;;;;;;;;4904853;29;20509;-47
2021/09/04 01:11:26;;;;;;;18.00;12.23;;;;;;;;;;4915607;29;20117;-47
2021/09/04 01:13:52;;;;;;;15.65;11.77;;;;;;;;;;4912534;29;20048;-50
2021/09/04 01:16:19;;;;;;;14.90;11.90;;;;;;;;;;4914803;29;20078;-51
2021/09/04 01:18:46;;;;;;;15.38;12.10;;;;;;;;;;4911414;29;20052;-48
2021/09/04 01:21:13;;;;;;;16.70;11.82;;;;;;;;;;4910047;29;20076;-46
2021/09/04 01:23:40;;;;;;;15.38;11.63;;;;;;;;;;4902655;29;20062;-48
2021/09/04 01:26:08;;;;;;;17.02;12.25;;;;;;;;;;4915300;29;20048;-50
2021/09/04 01:28:35;;;;;;;15.82;11.55;;;;;;;;;;4912228;29;20044;-47
2021/09/04 01:31:03;;;;;;;15.88;11.02;;;;;;;;;;4899231;29;20055;-47
2021/09/04 01:33:30;;;;;;;17.33;11.52;;;;;;;;;;4906792;29;20049;-48
2021/09/04 01:35:56;;;;;;;16.63;11.63;;;;;;;;;;4931318;29;20054;-49
2021/09/04 01:38:24;;;;;;;14.85;10.80;;;;;;;;;;4908306;29;20059;-47
2021/09/04 01:40:51;;;;;;;15.80;11.20;;;;;;;;;;4915043;29;20051;-48
2021/09/04 01:43:18;;;;;;;14.65;11.30;;;;;;;;;;4924895;29;20050;-48
2021/09/04 01:45:44;;;;;;;14.80;10.65;;;;;;;;;;4920300;29;20503;-50
2021/09/04 01:48:11;;;;;;;14.30;10.73;;;;;;;;;;4908760;29;20140;-47
2021/09/04 01:50:38;;;;;;;14.50;10.90;;;;;;;;;;4909407;29;20047;-48
2021/09/04 01:53:05;;;;;;;15.35;11.77;;;;;;;;;;4928413;29;20063;-47
2021/09/04 01:55:32;;;;;;;15.18;12.02;;;;;;;;;;4914720;29;20053;-51
2021/09/04 01:57:58;;;;;;;15.82;11.18;;;;;;;;;;4906813;29;20142;-48
2021/09/04 02:00:25;;;;;;;13.82;10.82;;;;;;;;;;4914779;29;20048;-47
2021/09/04 02:02:52;;;;;;;14.90;10.50;;;;;;;;;;4914018;29;20055;-47
2021/09/04 02:05:19;;;;;;;12.63;10.30;;;;;;;;;;4911621;29;20059;-46
2021/09/04 02:07:46;;;;;;;14.45;10.43;;;;;;;;;;4909191;29;20036;-49
2021/09/04 02:10:12;;;;;;;15.77;10.98;;;;;;;;;;4909228;29;20048;-49
2021/09/04 02:12:39;;;;;;;13.68;11.00;;;;;;;;;;4918603;29;20051;-51
2021/09/04 02:15:08;;;;;;;15.98;11.32;;;;;;;;;;4924029;29;20562;-47
2021/09/04 02:17:36;;;;;;;13.55;11.02;;;;;;;;;;4907106;29;20127;-47
2021/09/04 02:20:05;;;;;;;17.77;11.18;;;;;;;;;;4914358;29;20057;-50
2021/09/04 02:22:33;;;;;;;16.00;10.35;;;;;;;;;;4900794;29;20052;-47
2021/09/04 02:25:02;;;;;;;15.90;10.75;;;;;;;;;;4914087;29;20047;-47
2021/09/04 02:27:32;;;;;;;16.98;11.40;;;;;;;;;;4906020;29;20172;-48
2021/09/04 02:30:01;;;;;;;16.60;10.52;;;;;;;;;;4928217;29;20470;-47
2021/09/04 02:32:28;;;;;;;16.63;11.35;;;;;;;;;;4925060;29;20049;-47
2021/09/04 02:34:57;;;;;;;15.82;11.50;;;;;;;;;;4911721;29;20123;-49
2021/09/04 02:37:25;;;;;;;14.52;11.23;;;;;;;;;;4903778;29;20401;-47
2021/09/04 02:39:52;;;;;;;15.70;11.48;;;;;;;;;;4916330;29;20083;-48
2021/09/04 02:42:19;;;;;;;14.48;11.50;;;;;;;;;;4917102;29;20066;-47
2021/09/04 02:44:46;;;;;;;15.27;11.57;;;;;;;;;;4926809;29;20071;-45
2021/09/04 02:47:13;;;;;;;14.65;11.82;;;;;;;;;;4901828;29;20044;-47
2021/09/04 02:49:40;;;;;;;14.65;11.20;;;;;;;;;;4917568;29;20044;-49
2021/09/04 02:52:08;;;;;;;15.95;11.50;;;;;;;;;;4902336;29;20040;-47
2021/09/04 02:54:35;;;;;;;16.38;11.68;;;;;;;;;;4913353;29;20052;-49
2021/09/04 02:57:04;;;;;;;17.77;12.30;;;;;;;;;;4899407;29;20049;-47
2021/09/04 02:59:31;;;;;;;16.88;12.02;;;;;;;;;;4899038;29;20177;-47
2021/09/04 03:02:00;;;;;;;18.65;13.15;;;;;;;;;;4911333;29;20052;-51
2021/09/04 03:04:27;;;;;;;17.67;12.82;;;;;;;;;;4916401;29;20044;-47
2021/09/04 03:06:54;;;;;;;15.32;12.05;;;;;;;;;;4905558;29;20040;-45
2021/09/04 03:09:21;;;;;;;18.15;13.18;;;;;;;;;;4901394;29;20049;-48
2021/09/04 03:11:48;;;;;;;16.30;12.43;;;;;;;;;;4899079;29;20049;-49
2021/09/04 03:14:14;;;;;;;17.83;12.43;;;;;;;;;;4921693;29;20048;-48
2021/09/04 03:16:42;;;;;;;19.05;12.25;;;;;;;;;;4905819;29;20041;-51
2021/09/04 03:19:09;;;;;;;18.67;12.32;;;;;;;;;;4916233;29;20044;-47
2021/09/04 03:21:37;;;;;;;16.65;12.18;;;;;;;;;;4903371;29;20140;-47
2021/09/04 03:24:04;;;;;;;17.17;12.73;;;;;;;;;;4921150;29;20594;-47
2021/09/04 03:26:31;;;;;;;16.30;12.98;;;;;;;;;;4909337;29;20083;-48
2021/09/04 03:28:58;;;;;;;17.10;11.93;;;;;;;;;;4898746;29;20036;-50
2021/09/04 03:31:26;;;;;;;16.48;11.98;;;;;;;;;;4914766;29;20040;-47
2021/09/04 03:33:53;;;;;;;22.10;12.68;;;;;;;;;;4932912;29;20047;-47
2021/09/04 03:36:20;;;;;;;17.23;12.45;;;;;;;;;;4905601;29;20055;-48
2021/09/04 03:38:47;;;;;;;15.45;12.32;;;;;;;;;;4898256;29;20060;-47
2021/09/04 03:41:14;;;;;;;14.43;11.18;;;;;;;;;;4908462;29;20048;-48
2021/09/04 03:43:42;;;;;;;16.02;11.93;;;;;;;;;;4931754;29;20039;-47
2021/09/04 03:46:09;;;;;;;17.88;12.23;;;;;;;;;;4915243;29;20056;-48
2021/09/04 03:48:39;;;;;;;15.80;11.20;;;;;;;;;;4898072;29;20131;-47
2021/09/04 03:51:05;;;;;;;14.65;11.13;;;;;;;;;;4907631;29;20064;-51
2021/09/04 03:53:33;;;;;;;14.82;10.95;;;;;;;;;;4916269;29;20048;-51
2021/09/04 03:56:00;;;;;;;15.75;10.88;;;;;;;;;;4908026;29;20064;-47
2021/09/04 03:58:29;;;;;;;15.40;11.25;;;;;;;;;;4901475;29;20140;-47
2021/09/04 04:00:56;;;;;;;15.32;11.23;;;;;;;;;;4916329;29;20048;-51
2021/09/04 04:03:23;;;;;;;16.75;12.15;;;;;;;;;;4916067;29;20060;-46
2021/09/04 04:05:50;;;;;;;16.15;11.85;;;;;;;;;;4917737;29;20032;-47
2021/09/04 04:08:17;;;;;;;16.80;11.80;;;;;;;;;;4904344;29;20095;-45
2021/09/04 04:10:44;;;;;;;16.92;12.60;;;;;;;;;;4910746;29;20512;-45
2021/09/04 04:13:12;;;;;;;17.67;12.05;;;;;;;;;;4909594;29;20050;-44
2021/09/04 04:15:40;;;;;;;17.00;12.57;;;;;;;;;;4910654;29;20071;-45
2021/09/04 04:18:07;;;;;;;17.75;12.52;;;;;;;;;;4896333;29;20080;-45
2021/09/04 04:20:34;;;;;;;17.58;12.93;;;;;;;;;;4904003;29;20059;-44
2021/09/04 04:23:02;;;;;;;15.60;11.15;;;;;;;;;;4916083;29;20507;-50
2021/09/04 04:25:29;;;;;;;16.90;11.85;;;;;;;;;;4915347;29;20067;-45
2021/09/04 04:27:56;;;;;;;18.40;13.00;;;;;;;;;;4908148;29;20040;-43
2021/09/04 04:30:23;;;;;;;17.60;11.80;;;;;;;;;;4910468;29;20041;-44
2021/09/04 04:32:51;;;;;;;17.05;11.40;;;;;;;;;;4897335;29;20045;-45
2021/09/04 04:35:19;;;;;;;16.85;13.02;;;;;;;;;;4908604;29;20139;-45
2021/09/04 04:37:46;;;;;;;17.95;12.40;;;;;;;;;;4910983;29;20048;-46
2021/09/04 04:40:13;;;;;;;15.98;11.98;;;;;;;;;;4915392;29;20036;-45
2021/09/04 04:42:40;;;;;;;18.77;12.10;;;;;;;;;;4897282;29;20075;-47
2021/09/04 04:45:08;;;;;;;15.90;12.05;;;;;;;;;;4918643;29;20087;-44
2021/09/04 04:47:35;;;;;;;15.68;11.52;;;;;;;;;;4910990;23;20467;-46
2021/09/04 04:50:02;;;;;;;16.70;11.38;;;;;;;;;;4931491;29;20054;-46
2021/09/04 04:52:30;;;;;;;17.60;12.40;;;;;;;;;;4930291;29;20147;-47
2021/09/04 04:54:57;;;;;;;16.13;12.00;;;;;;;;;;4915874;29;20059;-46
2021/09/04 04:57:24;;;;;;;16.63;11.38;;;;;;;;;;4934120;29;20549;-49
2021/09/04 04:59:52;;;;;;;15.82;12.18;;;;;;;;;;4916560;29;20055;-48
2021/09/04 05:02:19;;;;;;;15.45;11.75;;;;;;;;;;4913780;29;20506;-48
2021/09/04 05:04:47;;;;;;;16.88;11.80;;;;;;;;;;4907183;29;20044;-50
2021/09/04 05:07:14;;;;;;;16.83;11.60;;;;;;;;;;4914340;29;20135;-47
2021/09/04 05:09:42;;;;;;;18.73;11.38;;;;;;;;;;4916098;29;20040;-51
2021/09/04 05:12:10;;;;;;;15.50;11.00;;;;;;;;;;4908752;29;20045;-47
2021/09/04 05:14:38;;;;;;;15.77;10.13;;;;;;;;;;4896796;29;20418;-47
2021/09/04 05:17:04;;;;;;;14.43;10.70;;;;;;;;;;4912507;29;20139;-47
2021/09/04 05:19:33;;;;;;;12.75;10.07;;;;;;;;;;4915867;29;20048;-50
2021/09/04 05:22:00;;;;;;;14.90;10.95;;;;;;;;;;4915016;29;20048;-48
2021/09/04 05:24:27;;;;;;;13.98;11.02;;;;;;;;;;4915458;29;20075;-48
2021/09/04 05:26:55;;;;;;;13.32;10.23;;;;;;;;;;4915858;29;20067;-49
2021/09/04 05:29:22;;;;;;;14.55;10.63;;;;;;;;;;4913701;29;20100;-46
2021/09/04 05:31:49;;;;;;;17.20;9.70;;;;;;;;;;4896986;29;20051;-45
2021/09/04 05:34:16;;;;;;;16.45;11.75;;;;;;;;;;4897358;29;20048;-48
2021/09/04 05:36:43;;;;;;;15.40;9.93;;;;;;;;;;4915574;29;20489;-46
2021/09/04 05:39:10;;;;;;;13.73;10.18;;;;;;;;;;4915335;29;20048;-45
2021/09/04 05:41:36;;;;;;;14.60;9.75;;;;;;;;;;4915606;29;20052;-48
2021/09/04 05:44:03;;;;;;;12.77;9.98;;;;;;;;;;4906331;29;20487;-47
2021/09/04 05:46:30;;;;;;;13.68;10.52;;;;;;;;;;4896674;29;20041;-47
2021/09/04 05:48:57;;;;;;;14.18;10.85;;;;;;;;;;4907687;29;20044;-49
2021/09/04 05:51:23;;;;;;;14.98;10.10;;;;;;;;;;4914888;29;20040;-45
2021/09/04 05:53:50;;;;;;;12.68;10.05;;;;;;;;;;4907882;29;20126;-46
2021/09/04 05:56:17;;;;;;;13.18;10.00;;;;;;;;;;4915472;29;20044;-48
2021/09/04 05:58:43;;;;;;;16.58;10.98;;;;;;;;;;4915143;29;20078;-46
2021/09/04 06:01:10;;;;;;;13.82;10.63;;;;;;;;;;4913463;29;20048;-46
2021/09/04 06:03:37;;;;;;;14.20;10.55;;;;;;;;;;4906675;29;20630;-51
2021/09/04 06:06:04;;;;;;;14.27;10.48;;;;;;;;;;4913137;29;20044;-47
2021/09/04 06:08:32;;;;;;;13.82;9.95;;;;;;;;;;4914962;29;20076;-47
2021/09/04 06:10:59;;;;;;;13.63;10.40;;;;;;;;;;4912067;29;20044;-52
2021/09/04 06:13:26;;;;;;;14.95;9.93;;;;;;;;;;4912857;29;20086;-48
2021/09/04 06:15:53;;;;;;;15.90;10.68;;;;;;;;;;4915236;29;20489;-49
2021/09/04 06:18:20;;;;;;;14.50;10.60;;;;;;;;;;4911552;29;20112;-46
2021/09/04 06:20:47;;;;;;;15.00;10.50;;;;;;;;;;4896965;29;20495;-47
2021/09/04 06:23:14;;;;;;;15.02;10.57;;;;;;;;;;4914122;29;20136;-51
2021/09/04 06:25:41;;;;;;;15.93;11.05;;;;;;;;;;4914467;29;20048;-53
2021/09/04 06:28:08;;;;;;;13.85;9.60;;;;;;;;;;4886772;29;20510;-49
2021/09/04 06:30:35;;;;;;;14.15;10.00;;;;;;;;;;4914876;29;20075;-50
2021/09/04 06:33:01;;;;;;;12.73;10.07;;;;;;;;;;4913987;29;20083;-49
2021/09/04 06:35:28;;;;;;;13.50;10.55;;;;;;;;;;4911689;29;20070;-51
2021/09/04 06:37:55;;;;;;;14.00;10.43;;;;;;;;;;4914471;29;20051;-50
2021/09/04 06:40:22;;;;;;;21.83;14.05;;;;;;;;;;4913607;29;20050;-49
2021/09/04 06:42:48;;;;;;;13.00;10.70;;;;;;;;;;4909981;29;20062;-49
2021/09/04 06:45:16;;;;;;;14.40;10.90;;;;;;;;;;4902891;29;20048;-50
2021/09/04 06:47:43;;;;;;;16.35;11.95;;;;;;;;;;4913820;29;20416;-48
2021/09/04 06:50:10;;;;;;;13.93;11.10;;;;;;;;;;4906277;29;20065;-49
2021/09/04 06:52:40;;;;;;;13.68;10.35;;;;;;;;;;4913682;29;20088;-52
2021/09/04 06:55:07;;;;;;;19.52;11.48;;;;;;;;;;4905731;29;20052;-48
2021/09/04 06:57:34;;;;;;;15.82;11.35;;;;;;;;;;4904219;29;20091;-50
2021/09/04 07:00:01;;;;;;;14.60;11.50;;;;;;;;;;4914259;29;20136;-49
2021/09/04 07:02:29;;;;;;;15.45;12.05;;;;;;;;;;4917141;29;20052;-51
2021/09/04 07:04:56;;;;;;;14.88;11.10;;;;;;;;;;4913374;29;20042;-51
2021/09/04 07:07:23;;;;;;;14.43;11.30;;;;;;;;;;4918088;29;20604;-48
2021/09/04 07:09:50;;;;;;;14.38;11.35;;;;;;;;;;4918020;29;20514;-48
2021/09/04 07:12:17;;;;;;;13.52;11.13;;;;;;;;;;4915501;29;20044;-51
2021/09/04 07:14:44;;;;;;;12.93;10.65;;;;;;;;;;4914395;29;20048;-52
2021/09/04 07:17:10;;;;;;;15.07;11.05;;;;;;;;;;4912665;29;20096;-51
2021/09/04 07:19:38;;;;;;;13.50;10.57;;;;;;;;;;4917746;29;20134;-52
2021/09/04 07:22:04;;;;;;;16.67;11.07;;;;;;;;;;4917471;29;20071;-51
2021/09/04 07:24:32;;;;;;;18.13;10.95;;;;;;;;;;4918567;29;20724;-49
2021/09/04 07:26:59;;;;;;;13.25;10.23;;;;;;;;;;4918290;29;20052;-51
2021/09/04 07:29:26;;;;;;;18.10;11.48;;;;;;;;;;4918325;29;20079;-51
2021/09/04 07:31:53;;;;;;;13.57;9.90;;;;;;;;;;4920262;29;20044;-51
2021/09/04 07:34:22;;;;;;;15.27;9.75;;;;;;;;;;4916807;29;20079;-51
2021/09/04 07:36:49;;;;;;;12.45;10.05;;;;;;;;;;4904335;29;20072;-51
2021/09/04 07:39:16;;;;;;;15.23;10.63;;;;;;;;;;4919422;29;20080;-51
2021/09/04 07:41:43;;;;;;;13.80;10.35;;;;;;;;;;4919901;29;20080;-51
2021/09/04 07:44:10;;;;;;;14.80;11.32;;;;;;;;;;4908401;29;20072;-47
2021/09/04 07:46:37;;;;;;;12.18;9.93;;;;;;;;;;4917350;29;20163;-49
2021/09/04 07:49:03;;;;;;;13.55;10.85;;;;;;;;;;4917694;29;20083;-51
2021/09/04 07:51:30;;;;;;;13.93;10.52;;;;;;;;;;4914720;29;20068;-52
2021/09/04 07:53:57;;;;;;;13.82;10.75;;;;;;;;;;4899299;29;20054;-49
2021/09/04 07:56:24;;;;;;;15.73;10.27;;;;;;;;;;4916576;29;20040;-51
2021/09/04 07:58:50;;;;;;;15.63;10.38;;;;;;;;;;4917174;29;20052;-47
2021/09/04 08:01:17;;;;;;;12.60;10.02;;;;;;;;;;4911525;29;20183;-48
2021/09/04 08:03:44;;;;;;;14.30;10.13;;;;;;;;;;4916014;29;20048;-48
2021/09/04 08:06:11;;;;;;;12.13;9.73;;;;;;;;;;4913610;29;20100;-50
2021/09/04 08:08:40;;;;;;;15.23;10.25;;;;;;;;;;4917058;29;20051;-49
2021/09/04 08:11:07;;;;;;;12.52;9.95;;;;;;;;;;4898809;29;20417;-49
2021/09/04 08:13:33;;;;;;;11.35;9.75;;;;;;;;;;4905187;29;20128;-48
2021/09/04 08:16:01;;;;;;;15.98;10.05;;;;;;;;;;4910416;29;20162;-48
2021/09/04 08:18:28;;;;;;;13.75;9.80;;;;;;;;;;4916847;29;20036;-49
2021/09/04 08:20:55;;;;;;;13.23;10.18;;;;;;;;;;4916541;29;20074;-49
2021/09/04 08:23:21;;;;;;;16.13;10.13;;;;;;;;;;4916472;29;20111;-47
2021/09/04 08:25:49;;;;;;;12.20;10.00;;;;;;;;;;4917648;29;20099;-50
2021/09/04 08:28:15;;;;;;;13.38;9.93;;;;;;;;;;4915559;29;20044;-47
2021/09/04 08:30:42;;;;;;;12.77;9.40;;;;;;;;;;4907242;29;20048;-49
2021/09/04 08:33:09;;;;;;;12.55;10.23;;;;;;;;;;4898505;29;20140;-47
2021/09/04 08:35:36;;;;;;;13.65;10.93;;;;;;;;;;4898695;29;20144;-48
2021/09/04 08:38:06;;;;;;;16.77;10.77;;;;;;;;;;4916695;29;20110;-47
2021/09/04 08:40:38;;;;;;;15.55;11.48;;;;;;;;;;4914947;29;20044;-49
2021/09/04 08:43:05;;;;;;;18.15;11.50;;;;;;;;;;4913998;29;20070;-51
2021/09/04 08:45:32;;;;;;;13.85;10.95;;;;;;;;;;4912366;29;20510;-47
2021/09/04 08:48:00;;;;;;;15.55;11.55;;;;;;;;;;4915135;29;20126;-47
2021/09/04 08:50:28;;;;;;;15.63;11.15;;;;;;;;;;4913961;29;20044;-46
2021/09/04 08:52:55;;;;;;;13.32;10.95;;;;;;;;;;4915111;29;20198;-48
2021/09/04 08:55:22;;;;;;;14.55;10.57;;;;;;;;;;4914790;29;20148;-50
2021/09/04 08:57:49;;;;;;;13.98;10.30;;;;;;;;;;4915700;29;20130;-53
2021/09/04 09:00:30;;;;;;;14.13;10.20;;;;;;;;;;4915020;29;20075;-50
2021/09/04 09:02:58;;;;;;;14.23;9.52;;;;;;;;;;4914015;29;20056;-51
2021/09/04 09:05:25;;;;;;;12.10;9.63;;;;;;;;;;4912541;29;20040;-50
2021/09/04 09:07:51;;;;;;;11.90;8.50;;;;;;;;;;4915729;29;20115;-52
2021/09/04 09:10:21;;;;;;;12.57;8.90;;;;;;;;;;4907099;29;20149;-47
2021/09/04 09:12:48;;;;;;;11.68;8.35;;;;;;;;;;4915063;29;20048;-54
2021/09/04 09:15:26;;;;;;;10.85;7.88;;;;;;;;;;4910181;29;20482;-51
2021/09/04 09:18:06;;;;;;;10.90;7.47;;;;;;;;;;4909185;29;20048;-47
2021/09/04 09:20:34;;;;;;;8.23;6.45;;;;;;;;;;4912957;29;20051;-47
2021/09/04 09:23:19;;;;;;;8.30;6.65;;;;;;;;;;4912102;29;20430;-47
2021/09/04 09:25:47;;;;;;;9.48;6.57;;;;;;;;;;4909186;29;20071;-46
2021/09/04 09:28:18;;;;;;;10.70;8.32;;;;;;;;;;4908115;29;20079;-49
2021/09/04 09:30:46;;;;;;;10.05;7.05;;;;;;;;;;4914101;29;20051;-53
2021/09/04 09:33:14;;;;;;;9.57;7.35;;;;;;;;;;4920559;29;20043;-47
2021/09/04 09:35:45;;;;;;;8.75;6.38;;;;;;;;;;4910135;29;20056;-48
2021/09/04 09:38:17;;;;;;;7.97;6.65;;;;;;;;;;4913225;29;20100;-49
2021/09/04 09:40:43;;;;;;;9.00;6.93;;;;;;;;;;4909461;29;20135;-46
2021/09/04 09:43:14;;;;;;;7.97;6.25;;;;;;;;;;4911514;29;20506;-46
2021/09/04 09:45:45;;;;;;;10.35;6.43;;;;;;;;;;4911774;29;20562;-51
2021/09/04 09:48:12;;;;;;;11.82;7.10;;;;;;;;;;4897722;29;20119;-49
2021/09/04 09:50:39;;;;;;;14.50;6.72;;;;;;;;;;4916249;29;20115;-55
2021/09/04 09:53:06;;;;;;;7.05;6.07;;;;;;;;;;4912632;29;20524;-54
2021/09/04 09:55:33;;;;;;;7.28;5.63;;;;;;;;;;4908254;29;20044;-56
2021/09/04 09:58:00;;;;;;;7.90;6.00;;;;;;;;;;4921847;29;20392;-55
2021/09/04 10:00:27;;;;;;;10.43;6.28;;;;;;;;;;4911085;29;20462;-53
2021/09/04 10:03:01;;;;;;;10.50;6.03;;;;;;;;;;4912930;29;20099;-56
2021/09/04 10:05:29;;;;;;;8.15;5.93;;;;;;;;;;4911391;29;20122;-54
2021/09/04 10:07:57;;;;;;;8.30;5.97;;;;;;;;;;4905372;29;20068;-56
2021/09/04 10:10:26;;;;;;;9.45;6.40;;;;;;;;;;4911401;29;20095;-54
2021/09/04 10:12:52;;;;;;;7.75;6.15;;;;;;;;;;4905285;29;20037;-54
2021/09/04 10:15:35;;;;;;;7.97;6.40;;;;;;;;;;4913017;29;20059;-53
2021/09/04 10:18:04;;;;;;;10.95;6.97;;;;;;;;;;4904953;29;20055;-50
2021/09/04 10:20:33;;;;;;;8.70;6.75;;;;;;;;;;4915248;29;20426;-54
2021/09/04 10:23:18;;;;;;;8.43;6.75;;;;;;;;;;4914450;29;20099;-54
2021/09/04 10:25:45;;;;;;;9.30;6.85;;;;;;;;;;4908045;29;20046;-52
2021/09/04 10:28:12;;;;;;;8.85;5.53;;;;;;;;;;4914885;29;20045;-53
2021/09/04 10:30:39;;;;;;;8.38;6.47;;;;;;;;;;4914637;29;20087;-54
2021/09/04 10:33:05;;;;;;;7.85;5.57;;;;;;;;;;4913840;29;20063;-54
2021/09/04 10:35:41;;;;;;;7.32;5.93;;;;;;;;;;4907494;29;20052;-53
2021/09/04 10:38:17;;;;;;;8.30;6.60;;;;;;;;;;4917425;29;20048;-54
2021/09/04 10:40:46;;;;;;;7.75;6.13;;;;;;;;;;4918041;29;20131;-55
2021/09/04 10:43:14;;;;;;;8.63;6.95;;;;;;;;;;4917392;29;20055;-54
2021/09/04 10:45:43;;;;;;;8.13;6.40;;;;;;;;;;4918074;29;20047;-56
2021/09/04 10:48:14;;;;;;;9.00;6.60;;;;;;;;;;4911412;29;20040;-53
2021/09/04 10:50:41;;;;;;;11.00;6.97;;;;;;;;;;4911101;29;20032;-56
2021/09/04 10:53:08;;;;;;;7.20;5.63;;;;;;;;;;4932256;23;20037;-45
2021/09/04 10:55:37;;;;;;;8.77;6.20;;;;;;;;;;4921149;29;20116;-47
2021/09/04 10:58:09;;;;;;;8.57;5.88;;;;;;;;;;4920791;29;20083;-45
2021/09/04 11:00:36;;;;;;;;;;;;;;;;;;4918782;29;20051;-43
2021/09/04 11:03:04;;;;;;;10.38;6.72;;;;;;;;;;4912279;29;19978;-48
2021/09/04 11:05:34;;;;;;;7.47;6.22;;;;;;;;;;4885698;29;20063;-45
2021/09/04 11:08:19;;;;;;;8.93;5.60;;;;;;;;;;4890966;29;20040;-48
2021/09/04 11:11:05;;;;;;;7.55;5.30;;;;;;;;;;4891292;29;20053;-44
2021/09/04 11:13:32;;;;;;;7.53;4.93;;;;;;;;;;4892632;29;20070;-44
2021/09/04 11:16:19;;;;;;;6.72;5.55;;;;;;;;;;4887789;29;20237;-44
2021/09/04 11:18:46;;;;;;;6.38;5.07;;;;;;;;;;4895624;29;20052;-42
2021/09/04 11:21:13;;;;;;;8.27;5.57;;;;;;;;;;4896400;29;20045;-42
2021/09/04 11:23:42;;;;;;;7.35;4.95;;;;;;;;;;4896234;29;20044;-49
2021/09/04 11:26:08;;;;;;;5.18;4.50;;;;;;;;;;4884999;29;20049;-42
2021/09/04 11:28:36;;;;;;;6.38;4.60;;;;;;;;;;4897870;29;20072;-42
2021/09/04 11:31:03;;;;;;;6.82;5.30;;;;;;;;;;4898966;29;20048;-44
2021/09/04 11:33:31;;;;;;;5.68;4.45;;;;;;;;;;4902472;29;20043;-44
2021/09/04 11:35:57;;;;;;;8.20;4.72;;;;;;;;;;4897165;29;20455;-42
2021/09/04 11:38:25;;;;;;;8.50;4.72;;;;;;;;;;4907867;29;20135;-44
2021/09/04 11:40:52;;;;;;;6.30;4.57;;;;;;;;;;4892403;29;20048;-43
2021/09/04 11:43:25;;;;;;;7.78;4.72;;;;;;;;;;4889169;29;20053;-43
2021/09/04 11:46:00;;;;;;;7.68;4.50;;;;;;;;;;4894732;29;20056;-42
2021/09/04 11:48:27;;;;;;;6.75;4.10;;;;;;;;;;4878762;29;20158;-41
2021/09/04 11:51:02;;;;;;;8.02;4.10;;;;;;;;;;4897650;29;20536;-45
2021/09/04 11:53:29;;;;;;;6.75;4.50;;;;;;;;;;4896390;29;20459;-43
2021/09/04 11:55:56;;;;;;;5.72;4.20;;;;;;;;;;4902490;29;20071;-44
2021/09/04 11:58:25;;;;;;;8.30;4.43;;;;;;;;;;4893338;29;20120;-43
2021/09/04 12:00:52;;;;;;;4.82;3.78;;;;;;;;;;4895765;29;20482;-43
2021/09/04 12:03:28;;;;;;;5.45;4.10;;;;;;;;;;4897151;29;20051;-46
2021/09/04 12:05:55;;;;;;;7.47;4.38;;;;;;;;;;4904251;29;20443;-43
2021/09/04 12:08:24;;;;;;;5.55;3.83;;;;;;;;;;4891766;29;20057;-47
2021/09/04 12:10:50;;;;;;;6.22;3.95;;;;;;;;;;4895730;29;20407;-45
2021/09/04 12:13:24;;;;;;;6.15;3.63;;;;;;;;;;4896540;29;20048;-46
2021/09/04 12:15:55;;;;;;;7.03;3.90;;;;;;;;;;4899891;29;20048;-45
2021/09/04 12:18:29;;;;;;;10.55;4.85;;;;;;;;;;4896468;29;20083;-44
2021/09/04 12:20:56;;;;;;;5.88;4.10;;;;;;;;;;4898110;29;20546;-44
2021/09/04 12:23:24;;;;;;;12.15;6.00;;;;;;;;;;4905641;29;20041;-44
2021/09/04 12:26:04;;;;;;;5.82;3.83;;;;;;;;;;4895558;29;20495;-44
2021/09/04 12:28:31;;;;;;;5.57;3.40;;;;;;;;;;4885805;29;20051;-43
2021/09/04 12:31:05;;;;;;;6.13;4.07;;;;;;;;;;4916495;29;20063;-45
2021/09/04 12:33:34;;;;;;;4.32;3.40;;;;;;;;;;4895677;29;20578;-45
2021/09/04 12:36:02;;;;;;;4.32;3.60;;;;;;;;;;4880187;29;20349;-47
2021/09/04 12:38:33;;;;;;;4.53;3.53;;;;;;;;;;4904959;29;20120;-49
2021/09/04 12:41:13;;;;;;;4.78;3.47;;;;;;;;;;4895463;29;20048;-42
2021/09/04 12:43:58;;;;;;;7.82;4.13;;;;;;;;;;4895620;29;20483;-48
2021/09/04 12:46:26;;;;;;;7.43;3.83;;;;;;;;;;4896378;29;20029;-46
2021/09/04 12:48:53;;;;;;;6.00;3.67;;;;;;;;;;4908633;29;20047;-44
2021/09/04 12:51:20;;;;;;;6.28;4.20;;;;;;;;;;4894622;29;20120;-43
2021/09/04 12:53:59;;;;;;;5.63;4.55;;;;;;;;;;4891832;29;20068;-46
2021/09/04 12:56:39;;;;;;;5.90;4.43;;;;;;;;;;4907351;29;20330;-47
2021/09/04 12:59:07;;;;;;;5.20;4.00;;;;;;;;;;4887117;29;20080;-44
2021/09/04 13:01:34;;;;;;;6.75;4.00;;;;;;;;;;4915701;29;20068;-47
2021/09/04 13:04:03;;;;;;;4.75;3.83;;;;;;;;;;4904779;29;20064;-42
2021/09/04 13:06:33;;;;;;;5.38;4.28;;;;;;;;;;4895022;29;20044;-43
2021/09/04 13:09:00;;;;;;;4.85;3.78;;;;;;;;;;4896002;29;20049;-44
2021/09/04 13:11:26;;;;;;;6.40;3.83;;;;;;;;;;4920244;29;20056;-44
2021/09/04 13:13:53;;;;;;;4.97;3.47;;;;;;;;;;4894484;29;20037;-46
2021/09/04 13:16:20;;;;;;;6.90;4.18;;;;;;;;;;4895292;29;20546;-45
2021/09/04 13:18:48;;;;;;;4.85;3.60;;;;;;;;;;4882851;29;20041;-43
2021/09/04 13:21:15;;;;;;;5.28;3.90;;;;;;;;;;4900863;29;20047;-50
2021/09/04 13:23:42;;;;;;;4.50;3.67;;;;;;;;;;4888334;29;20150;-43
2021/09/04 13:26:09;;;;;;;5.03;4.00;;;;;;;;;;4899423;29;20051;-42
2021/09/04 13:28:36;;;;;;;6.30;3.72;;;;;;;;;;4894728;29;20522;-43
2021/09/04 13:31:03;;;;;;;4.95;3.53;;;;;;;;;;4902286;29;20624;-42
2021/09/04 13:33:30;;;;;;;4.97;4.03;;;;;;;;;;4898253;29;20078;-42
2021/09/04 13:35:56;;;;;;;7.47;3.95;;;;;;;;;;4891825;29;20518;-42
2021/09/04 13:38:23;;;;;;;4.95;3.40;;;;;;;;;;4895885;29;20506;-43
2021/09/04 13:40:50;;;;;;;6.45;3.83;;;;;;;;;;4895727;29;20104;-45
2021/09/04 13:43:17;;;;;;;5.18;3.75;;;;;;;;;;4894552;29;20132;-41
2021/09/04 13:45:44;;;;;;;6.07;3.95;;;;;;;;;;4895856;29;20041;-43
2021/09/04 13:48:10;;;;;;;5.38;3.55;;;;;;;;;;4896691;29;20048;-45
2021/09/04 13:50:39;;;;;;;5.15;3.90;;;;;;;;;;4895790;29;20051;-42
2021/09/04 13:53:05;;;;;;;5.97;3.95;;;;;;;;;;4893511;29;20065;-44
2021/09/04 13:55:32;;;;;;;7.25;3.70;;;;;;;;;;4897731;29;20052;-46
2021/09/04 13:57:59;;;;;;;6.13;4.22;;;;;;;;;;4901433;29;20084;-48
2021/09/04 14:00:26;;;;;;;5.13;4.05;;;;;;;;;;4891281;29;20151;-45
2021/09/04 14:02:53;;;;;;;5.32;3.90;;;;;;;;;;4891785;29;20509;-43
2021/09/04 14:05:20;;;;;;;5.47;3.88;;;;;;;;;;4892240;29;20045;-44
2021/09/04 14:07:46;;;;;;;5.20;3.95;;;;;;;;;;4891612;29;20045;-44
2021/09/04 14:10:13;;;;;;;4.72;3.85;;;;;;;;;;4894636;29;20037;-44
2021/09/04 14:12:40;;;;;;;4.53;3.45;;;;;;;;;;4890934;29;20167;-43
2021/09/04 14:15:07;;;;;;;5.63;3.80;;;;;;;;;;4891741;29;20116;-48
2021/09/04 14:17:36;;;;;;;7.82;3.80;;;;;;;;;;4893050;29;20045;-47
2021/09/04 14:20:05;;;;;;;6.20;3.88;;;;;;;;;;4893032;29;20045;-45
2021/09/04 14:22:31;;;;;;;8.02;3.97;;;;;;;;;;4892654;29;20160;-43
2021/09/04 14:24:58;;;;;;;6.18;3.58;;;;;;;;;;4893908;29;20079;-45
2021/09/04 14:27:28;;;;;;;7.25;4.40;;;;;;;;;;4894646;29;20044;-45
2021/09/04 14:29:55;;;;;;;5.20;3.50;;;;;;;;;;4885990;29;20071;-43